sensor_id;sensor_type;location;lat;lon;timestamp;pressure;altitude;pressure_sealevel;temperature;humidity
39491;BME280;25175;50.140;18.990;2022-08-11T00:01:07;99268.44;;;16.22;52.76
39491;BME280;25175;50.140;18.990;2022-08-11T00:04:12;99266.38;;;16.24;53.12
39491;BME280;25175;50.140;18.990;2022-08-11T00:07:16;99260.91;;;16.26;52.96
39491;BME280;25175;50.140;18.990;2022-08-11T00:10:20;99250.31;;;16.26;52.93
39491;BME280;25175;50.140;18.990;2022-08-11T00:13:30;99249.50;;;16.25;53.09
39491;BME280;25175;50.140;18.990;2022-08-11T00:16:33;99249.28;;;16.27;53.04
39491;BME280;25175;50.140;18.990;2022-08-11T00:19:39;99258.63;;;16.29;53.33
39491;BME280;25175;50.140;18.990;2022-08-11T00:22:44;99247.66;;;16.26;53.41
39491;BME280;25175;50.140;18.990;2022-08-11T00:25:49;99256.03;;;16.23;53.55
39491;BME280;25175;50.140;18.990;2022-08-11T00:28:53;99258.66;;;16.23;53.50
39491;BME280;25175;50.140;18.990;2022-08-11T00:31:57;99263.38;;;16.21;53.98
39491;BME280;25175;50.140;18.990;2022-08-11T00:35:05;99260.50;;;16.22;54.02
39491;BME280;25175;50.140;18.990;2022-08-11T00:38:08;99250.75;;;16.23;54.16
39491;BME280;25175;50.140;18.990;2022-08-11T00:41:28;99265.00;;;16.22;54.47
39491;BME280;25175;50.140;18.990;2022-08-11T00:44:39;99259.34;;;16.18;54.71
39491;BME280;25175;50.140;18.990;2022-08-11T00:47:55;99270.50;;;16.20;54.55
39491;BME280;25175;50.140;18.990;2022-08-11T00:51:10;99269.47;;;16.21;54.66
39491;BME280;25175;50.140;18.990;2022-08-11T01:01:45;99261.91;;;16.24;55.25
39491;BME280;25175;50.140;18.990;2022-08-11T01:09:05;99268.59;;;16.27;54.91
39491;BME280;25175;50.140;18.990;2022-08-11T01:12:31;99255.16;;;16.28;54.86
39491;BME280;25175;50.140;18.990;2022-08-11T01:16:05;99264.69;;;16.29;55.41
39491;BME280;25175;50.140;18.990;2022-08-11T01:37:33;99245.75;;;16.15;55.74
39491;BME280;25175;50.140;18.990;2022-08-11T01:45:05;99246.78;;;15.89;56.43
39491;BME280;25175;50.140;18.990;2022-08-11T01:48:14;99242.78;;;15.80;56.95
39491;BME280;25175;50.140;18.990;2022-08-11T01:51:24;99236.78;;;15.67;57.38
39491;BME280;25175;50.140;18.990;2022-08-11T01:54:38;99234.84;;;15.56;57.93
39491;BME280;25175;50.140;18.990;2022-08-11T01:57:52;99222.72;;;15.48;58.26
39491;BME280;25175;50.140;18.990;2022-08-11T02:01:14;99233.31;;;15.42;58.63
39491;BME280;25175;50.140;18.990;2022-08-11T02:04:30;99236.59;;;15.37;58.94
39491;BME280;25175;50.140;18.990;2022-08-11T02:07:37;99236.22;;;15.34;58.90
39491;BME280;25175;50.140;18.990;2022-08-11T02:10:56;99228.50;;;15.32;59.02
39491;BME280;25175;50.140;18.990;2022-08-11T02:14:23;99224.69;;;15.28;58.53
39491;BME280;25175;50.140;18.990;2022-08-11T02:17:39;99233.03;;;15.25;58.83
39491;BME280;25175;50.140;18.990;2022-08-11T02:20:44;99229.00;;;15.23;58.63
39491;BME280;25175;50.140;18.990;2022-08-11T02:24:13;99229.41;;;15.20;58.56
39491;BME280;25175;50.140;18.990;2022-08-11T02:27:22;99225.34;;;15.17;58.75
39491;BME280;25175;50.140;18.990;2022-08-11T02:30:31;99242.00;;;15.18;58.58
39491;BME280;25175;50.140;18.990;2022-08-11T02:33:40;99240.41;;;15.17;58.54
39491;BME280;25175;50.140;18.990;2022-08-11T02:36:48;99235.91;;;15.17;58.39
39491;BME280;25175;50.140;18.990;2022-08-11T02:40:01;99231.66;;;15.16;58.90
39491;BME280;25175;50.140;18.990;2022-08-11T02:46:47;99232.69;;;15.15;58.85
39491;BME280;25175;50.140;18.990;2022-08-11T02:50:00;99232.09;;;15.13;58.70
39491;BME280;25175;50.140;18.990;2022-08-11T02:53:08;99236.38;;;15.08;58.47
39491;BME280;25175;50.140;18.990;2022-08-11T02:56:18;99232.34;;;15.05;59.04
39491;BME280;25175;50.140;18.990;2022-08-11T02:59:30;99229.50;;;15.07;58.89
39491;BME280;25175;50.140;18.990;2022-08-11T03:03:10;99225.41;;;15.11;58.85
39491;BME280;25175;50.140;18.990;2022-08-11T03:06:23;99230.25;;;15.14;58.64
39491;BME280;25175;50.140;18.990;2022-08-11T03:09:41;99228.84;;;15.11;58.52
39491;BME280;25175;50.140;18.990;2022-08-11T03:12:49;99226.66;;;15.08;58.74
39491;BME280;25175;50.140;18.990;2022-08-11T03:16:18;99230.69;;;15.11;58.78
39491;BME280;25175;50.140;18.990;2022-08-11T03:19:45;99229.22;;;15.15;58.78
39491;BME280;25175;50.140;18.990;2022-08-11T03:22:57;99221.75;;;15.12;58.70
39491;BME280;25175;50.140;18.990;2022-08-11T03:26:09;99234.75;;;15.13;58.88
39491;BME280;25175;50.140;18.990;2022-08-11T03:29:22;99248.53;;;15.15;58.45
39491;BME280;25175;50.140;18.990;2022-08-11T03:32:29;99236.34;;;15.14;58.37
39491;BME280;25175;50.140;18.990;2022-08-11T03:35:39;99238.22;;;15.07;58.91
39491;BME280;25175;50.140;18.990;2022-08-11T03:38:53;99235.19;;;15.04;59.13
39491;BME280;25175;50.140;18.990;2022-08-11T03:42:05;99232.41;;;14.99;59.14
39491;BME280;25175;50.140;18.990;2022-08-11T03:45:24;99242.16;;;14.92;59.41
39491;BME280;25175;50.140;18.990;2022-08-11T03:48:39;99234.47;;;14.84;59.97
39491;BME280;25175;50.140;18.990;2022-08-11T03:51:47;99239.75;;;14.77;60.29
39491;BME280;25175;50.140;18.990;2022-08-11T03:54:57;99230.69;;;14.67;60.06
39491;BME280;25175;50.140;18.990;2022-08-11T03:58:26;99232.53;;;14.60;60.70
39491;BME280;25175;50.140;18.990;2022-08-11T04:02:08;99233.34;;;14.54;60.75
39491;BME280;25175;50.140;18.990;2022-08-11T04:05:40;99235.41;;;14.52;60.80
39491;BME280;25175;50.140;18.990;2022-08-11T04:09:43;99234.38;;;14.53;61.02
39491;BME280;25175;50.140;18.990;2022-08-11T04:13:08;99235.00;;;14.55;60.64
39491;BME280;25175;50.140;18.990;2022-08-11T04:16:41;99224.44;;;14.55;60.55
39491;BME280;25175;50.140;18.990;2022-08-11T04:20:01;99236.38;;;14.57;60.84
39491;BME280;25175;50.140;18.990;2022-08-11T04:23:23;99234.56;;;14.58;60.69
39491;BME280;25175;50.140;18.990;2022-08-11T04:30:04;99225.22;;;14.62;60.63
39491;BME280;25175;50.140;18.990;2022-08-11T04:36:40;99238.59;;;14.67;60.89
39491;BME280;25175;50.140;18.990;2022-08-11T04:40:23;99233.91;;;14.69;61.15
39491;BME280;25175;50.140;18.990;2022-08-11T04:44:06;99230.44;;;14.75;61.16
39491;BME280;25175;50.140;18.990;2022-08-11T04:47:42;99227.97;;;14.80;60.97
39491;BME280;25175;50.140;18.990;2022-08-11T04:51:27;99229.19;;;14.84;60.92
39491;BME280;25175;50.140;18.990;2022-08-11T04:54:57;99229.56;;;14.87;61.24
39491;BME280;25175;50.140;18.990;2022-08-11T04:58:29;99239.50;;;14.92;60.97
39491;BME280;25175;50.140;18.990;2022-08-11T05:02:45;99247.78;;;15.02;61.23
39491;BME280;25175;50.140;18.990;2022-08-11T05:06:28;99229.88;;;15.10;61.25
39491;BME280;25175;50.140;18.990;2022-08-11T05:09:49;99235.50;;;15.20;61.02
39491;BME280;25175;50.140;18.990;2022-08-11T05:12:57;99230.97;;;15.27;61.13
39491;BME280;25175;50.140;18.990;2022-08-11T05:16:27;99229.34;;;15.33;60.88
39491;BME280;25175;50.140;18.990;2022-08-11T05:19:49;99230.69;;;15.42;61.12
39491;BME280;25175;50.140;18.990;2022-08-11T05:23:10;99233.88;;;15.50;60.92
39491;BME280;25175;50.140;18.990;2022-08-11T05:26:38;99236.03;;;15.60;61.04
39491;BME280;25175;50.140;18.990;2022-08-11T05:30:04;99236.13;;;15.71;61.06
39491;BME280;25175;50.140;18.990;2022-08-11T05:33:32;99243.56;;;15.80;61.05
39491;BME280;25175;50.140;18.990;2022-08-11T05:36:55;99241.50;;;15.89;60.99
39491;BME280;25175;50.140;18.990;2022-08-11T05:40:03;99240.41;;;15.97;60.76
39491;BME280;25175;50.140;18.990;2022-08-11T05:43:24;99245.81;;;16.08;61.00
39491;BME280;25175;50.140;18.990;2022-08-11T05:46:44;99251.63;;;16.17;60.50
39491;BME280;25175;50.140;18.990;2022-08-11T05:50:08;99247.66;;;16.26;60.18
39491;BME280;25175;50.140;18.990;2022-08-11T05:53:29;99242.66;;;16.35;60.26
39491;BME280;25175;50.140;18.990;2022-08-11T05:56:51;99244.81;;;16.45;60.11
39491;BME280;25175;50.140;18.990;2022-08-11T05:59:58;99241.66;;;16.54;59.65
39491;BME280;25175;50.140;18.990;2022-08-11T06:03:02;99242.16;;;16.63;59.58
39491;BME280;25175;50.140;18.990;2022-08-11T06:06:09;99251.19;;;16.73;59.22
39491;BME280;25175;50.140;18.990;2022-08-11T06:09:12;99242.97;;;16.82;58.98
39491;BME280;25175;50.140;18.990;2022-08-11T06:12:17;99251.63;;;16.88;58.56
39491;BME280;25175;50.140;18.990;2022-08-11T06:15:20;99255.81;;;16.96;58.43
39491;BME280;25175;50.140;18.990;2022-08-11T06:18:23;99250.78;;;17.06;58.69
39491;BME280;25175;50.140;18.990;2022-08-11T06:21:27;99265.09;;;17.16;58.89
39491;BME280;25175;50.140;18.990;2022-08-11T06:24:37;99265.38;;;17.26;59.01
39491;BME280;25175;50.140;18.990;2022-08-11T06:27:41;99269.91;;;17.37;58.46
39491;BME280;25175;50.140;18.990;2022-08-11T06:30:45;99272.00;;;17.47;57.99
39491;BME280;25175;50.140;18.990;2022-08-11T06:33:54;99264.56;;;17.55;58.06
39491;BME280;25175;50.140;18.990;2022-08-11T06:37:14;99270.13;;;17.65;57.96
39491;BME280;25175;50.140;18.990;2022-08-11T06:40:28;99269.31;;;17.76;57.83
39491;BME280;25175;50.140;18.990;2022-08-11T06:43:46;99270.63;;;17.85;57.61
39491;BME280;25175;50.140;18.990;2022-08-11T06:46:51;99268.78;;;17.97;57.34
39491;BME280;25175;50.140;18.990;2022-08-11T06:49:56;99266.13;;;18.09;57.82
39491;BME280;25175;50.140;18.990;2022-08-11T06:53:19;99264.84;;;18.23;57.04
39491;BME280;25175;50.140;18.990;2022-08-11T06:56:24;99274.69;;;18.34;55.93
39491;BME280;25175;50.140;18.990;2022-08-11T06:59:46;99269.38;;;18.45;55.08
39491;BME280;25175;50.140;18.990;2022-08-11T07:03:09;99270.94;;;18.58;54.83
39491;BME280;25175;50.140;18.990;2022-08-11T07:06:24;99274.63;;;18.68;54.55
39491;BME280;25175;50.140;18.990;2022-08-11T07:09:56;99259.47;;;18.80;54.33
39491;BME280;25175;50.140;18.990;2022-08-11T07:13:21;99258.41;;;18.93;52.98
39491;BME280;25175;50.140;18.990;2022-08-11T07:16:44;99267.41;;;19.03;53.23
39491;BME280;25175;50.140;18.990;2022-08-11T07:19:52;99254.88;;;19.15;52.74
39491;BME280;25175;50.140;18.990;2022-08-11T07:23:13;99259.66;;;19.30;52.69
39491;BME280;25175;50.140;18.990;2022-08-11T07:26:34;99253.81;;;19.44;52.76
39491;BME280;25175;50.140;18.990;2022-08-11T07:29:56;99264.38;;;19.56;51.79
39491;BME280;25175;50.140;18.990;2022-08-11T07:33:00;99258.66;;;19.64;52.28
39491;BME280;25175;50.140;18.990;2022-08-11T07:36:04;99262.75;;;19.71;51.90
39491;BME280;25175;50.140;18.990;2022-08-11T07:39:10;99262.41;;;19.79;51.38
39491;BME280;25175;50.140;18.990;2022-08-11T07:42:21;99254.31;;;19.91;51.73
39491;BME280;25175;50.140;18.990;2022-08-11T07:45:25;99258.28;;;20.05;51.50
39491;BME280;25175;50.140;18.990;2022-08-11T07:48:45;99256.63;;;20.20;51.01
39491;BME280;25175;50.140;18.990;2022-08-11T07:52:06;99265.34;;;20.32;50.51
39491;BME280;25175;50.140;18.990;2022-08-11T07:55:26;99263.84;;;20.41;50.25
39491;BME280;25175;50.140;18.990;2022-08-11T07:58:34;99256.59;;;20.53;50.10
39491;BME280;25175;50.140;18.990;2022-08-11T08:01:55;99257.03;;;20.67;49.97
39491;BME280;25175;50.140;18.990;2022-08-11T08:05:16;99249.78;;;20.84;48.92
39491;BME280;25175;50.140;18.990;2022-08-11T08:08:36;99251.50;;;20.95;48.48
39491;BME280;25175;50.140;18.990;2022-08-11T08:11:59;99247.28;;;20.99;47.94
39491;BME280;25175;50.140;18.990;2022-08-11T08:15:21;99242.81;;;21.04;48.09
39491;BME280;25175;50.140;18.990;2022-08-11T08:18:41;99242.44;;;21.17;47.45
39491;BME280;25175;50.140;18.990;2022-08-11T08:21:45;99241.38;;;21.18;46.56
39491;BME280;25175;50.140;18.990;2022-08-11T08:24:48;99244.19;;;21.07;46.17
39491;BME280;25175;50.140;18.990;2022-08-11T08:27:51;99247.88;;;21.06;46.77
39491;BME280;25175;50.140;18.990;2022-08-11T08:30:56;99245.16;;;21.22;47.83
39491;BME280;25175;50.140;18.990;2022-08-11T08:33:59;99236.31;;;21.43;47.66
39491;BME280;25175;50.140;18.990;2022-08-11T08:37:01;99244.41;;;21.53;45.92
39491;BME280;25175;50.140;18.990;2022-08-11T08:40:06;99237.44;;;21.52;45.84
39491;BME280;25175;50.140;18.990;2022-08-11T08:43:12;99238.00;;;21.54;45.96
39491;BME280;25175;50.140;18.990;2022-08-11T08:46:22;99228.38;;;21.48;45.49
39491;BME280;25175;50.140;18.990;2022-08-11T08:49:31;99226.19;;;21.45;46.66
39491;BME280;25175;50.140;18.990;2022-08-11T08:52:38;99224.69;;;21.54;46.45
39491;BME280;25175;50.140;18.990;2022-08-11T08:55:44;99227.94;;;21.61;45.98
39491;BME280;25175;50.140;18.990;2022-08-11T08:58:48;99220.75;;;21.67;46.21
39491;BME280;25175;50.140;18.990;2022-08-11T09:01:56;99225.63;;;21.75;45.04
39491;BME280;25175;50.140;18.990;2022-08-11T09:04:59;99224.31;;;21.77;44.89
39491;BME280;25175;50.140;18.990;2022-08-11T09:08:03;99222.72;;;21.76;43.94
39491;BME280;25175;50.140;18.990;2022-08-11T09:11:09;99221.94;;;21.81;44.85
39491;BME280;25175;50.140;18.990;2022-08-11T09:14:34;99215.44;;;21.98;46.40
39491;BME280;25175;50.140;18.990;2022-08-11T09:17:59;99218.66;;;22.05;45.05
39491;BME280;25175;50.140;18.990;2022-08-11T09:21:06;99217.09;;;22.09;43.78
39491;BME280;25175;50.140;18.990;2022-08-11T09:24:09;99220.34;;;22.16;44.62
39491;BME280;25175;50.140;18.990;2022-08-11T09:27:29;99217.94;;;22.20;44.43
39491;BME280;25175;50.140;18.990;2022-08-11T09:30:31;99209.47;;;22.28;44.82
39491;BME280;25175;50.140;18.990;2022-08-11T09:33:35;99199.66;;;22.43;44.86
39491;BME280;25175;50.140;18.990;2022-08-11T09:36:38;99203.75;;;22.66;44.29
39491;BME280;25175;50.140;18.990;2022-08-11T09:39:58;99201.13;;;22.81;43.55
39491;BME280;25175;50.140;18.990;2022-08-11T09:43:18;99208.09;;;22.82;42.18
39491;BME280;25175;50.140;18.990;2022-08-11T09:46:38;99211.53;;;22.67;42.50
39491;BME280;25175;50.140;18.990;2022-08-11T09:49:44;99201.34;;;22.59;41.77
39491;BME280;25175;50.140;18.990;2022-08-11T09:52:49;99196.50;;;22.51;42.35
39491;BME280;25175;50.140;18.990;2022-08-11T09:55:52;99197.22;;;22.42;41.82
39491;BME280;25175;50.140;18.990;2022-08-11T09:58:54;99202.28;;;22.33;42.86
39491;BME280;25175;50.140;18.990;2022-08-11T10:01:58;99193.22;;;22.39;43.79
39491;BME280;25175;50.140;18.990;2022-08-11T10:05:03;99193.63;;;22.63;44.00
39491;BME280;25175;50.140;18.990;2022-08-11T10:08:21;99181.94;;;22.89;43.19
39491;BME280;25175;50.140;18.990;2022-08-11T10:11:27;99184.63;;;23.04;41.46
39491;BME280;25175;50.140;18.990;2022-08-11T10:14:31;99194.25;;;23.00;41.39
39491;BME280;25175;50.140;18.990;2022-08-11T10:17:54;99180.59;;;22.86;41.49
39491;BME280;25175;50.140;18.990;2022-08-11T10:21:23;99177.34;;;22.74;41.29
39491;BME280;25175;50.140;18.990;2022-08-11T10:24:28;99177.00;;;22.51;40.54
39491;BME280;25175;50.140;18.990;2022-08-11T10:27:48;99184.66;;;22.32;41.37
39491;BME280;25175;50.140;18.990;2022-08-11T10:30:55;99172.88;;;22.28;41.57
39491;BME280;25175;50.140;18.990;2022-08-11T10:34:12;99166.97;;;22.21;41.67
39491;BME280;25175;50.140;18.990;2022-08-11T10:37:16;99168.03;;;22.20;41.93
39491;BME280;25175;50.140;18.990;2022-08-11T10:40:22;99166.72;;;22.23;41.79
39491;BME280;25175;50.140;18.990;2022-08-11T10:43:24;99164.34;;;22.31;42.50
39491;BME280;25175;50.140;18.990;2022-08-11T10:46:26;99157.16;;;22.37;42.12
39491;BME280;25175;50.140;18.990;2022-08-11T10:49:46;99157.44;;;22.40;42.32
39491;BME280;25175;50.140;18.990;2022-08-11T10:53:10;99155.88;;;22.49;42.13
39491;BME280;25175;50.140;18.990;2022-08-11T10:56:33;99155.66;;;22.51;41.62
39491;BME280;25175;50.140;18.990;2022-08-11T10:59:54;99136.66;;;22.52;41.71
39491;BME280;25175;50.140;18.990;2022-08-11T11:02:57;99145.25;;;22.54;40.68
39491;BME280;25175;50.140;18.990;2022-08-11T11:06:06;99146.50;;;22.47;40.82
39491;BME280;25175;50.140;18.990;2022-08-11T11:09:14;99130.53;;;22.52;40.36
39491;BME280;25175;50.140;18.990;2022-08-11T11:15:54;99127.34;;;22.60;40.18
39491;BME280;25175;50.140;18.990;2022-08-11T11:19:16;99126.28;;;22.71;40.66
39491;BME280;25175;50.140;18.990;2022-08-11T11:22:24;99122.06;;;22.85;40.29
39491;BME280;25175;50.140;18.990;2022-08-11T11:26:20;99110.31;;;23.06;40.03
39491;BME280;25175;50.140;18.990;2022-08-11T11:29:45;99111.41;;;23.35;39.83
39491;BME280;25175;50.140;18.990;2022-08-11T11:33:01;99112.44;;;23.59;38.96
39491;BME280;25175;50.140;18.990;2022-08-11T11:36:11;99104.16;;;23.55;38.18
39491;BME280;25175;50.140;18.990;2022-08-11T11:39:20;99114.06;;;23.55;37.50
39491;BME280;25175;50.140;18.990;2022-08-11T11:42:24;99108.72;;;23.50;36.88
39491;BME280;25175;50.140;18.990;2022-08-11T11:45:27;99103.63;;;23.58;36.67
39491;BME280;25175;50.140;18.990;2022-08-11T11:48:30;99099.31;;;23.72;37.02
39491;BME280;25175;50.140;18.990;2022-08-11T11:51:35;99090.16;;;23.93;36.73
39491;BME280;25175;50.140;18.990;2022-08-11T11:54:38;99069.25;;;24.00;36.16
39491;BME280;25175;50.140;18.990;2022-08-11T11:57:43;99078.31;;;24.14;36.20
39491;BME280;25175;50.140;18.990;2022-08-11T12:01:03;99064.81;;;24.34;36.35
39491;BME280;25175;50.140;18.990;2022-08-11T12:04:19;99062.00;;;24.59;36.19
39491;BME280;25175;50.140;18.990;2022-08-11T12:07:22;99056.72;;;24.88;36.85
39491;BME280;25175;50.140;18.990;2022-08-11T12:10:45;99062.13;;;25.16;35.90
39491;BME280;25175;50.140;18.990;2022-08-11T12:13:51;99052.56;;;25.34;34.68
39491;BME280;25175;50.140;18.990;2022-08-11T12:16:54;99049.16;;;25.28;33.56
39491;BME280;25175;50.140;18.990;2022-08-11T12:19:57;99060.47;;;25.20;34.13
39491;BME280;25175;50.140;18.990;2022-08-11T12:22:59;99065.59;;;25.17;34.33
39491;BME280;25175;50.140;18.990;2022-08-11T12:26:20;99051.00;;;24.99;34.49
39491;BME280;25175;50.140;18.990;2022-08-11T12:29:42;99050.75;;;24.62;34.35
39491;BME280;25175;50.140;18.990;2022-08-11T12:32:45;99046.06;;;24.39;35.13
39491;BME280;25175;50.140;18.990;2022-08-11T12:35:52;99048.22;;;24.32;35.46
39491;BME280;25175;50.140;18.990;2022-08-11T12:38:56;99046.13;;;24.24;35.39
39491;BME280;25175;50.140;18.990;2022-08-11T12:41:59;99045.59;;;24.22;36.01
39491;BME280;25175;50.140;18.990;2022-08-11T12:45:24;99032.16;;;24.27;36.30
39491;BME280;25175;50.140;18.990;2022-08-11T12:48:31;99036.97;;;24.35;35.63
39491;BME280;25175;50.140;18.990;2022-08-11T12:51:53;99040.97;;;24.43;35.58
39491;BME280;25175;50.140;18.990;2022-08-11T12:55:07;99018.72;;;24.37;35.47
39491;BME280;25175;50.140;18.990;2022-08-11T12:58:13;99031.81;;;24.49;36.59
39491;BME280;25175;50.140;18.990;2022-08-11T13:01:18;99022.41;;;24.51;35.63
39491;BME280;25175;50.140;18.990;2022-08-11T13:04:40;99014.41;;;24.46;35.60
39491;BME280;25175;50.140;18.990;2022-08-11T13:07:55;99018.94;;;24.51;36.15
39491;BME280;25175;50.140;18.990;2022-08-11T13:11:00;99007.91;;;24.57;35.80
39491;BME280;25175;50.140;18.990;2022-08-11T13:14:20;99014.50;;;24.70;35.83
39491;BME280;25175;50.140;18.990;2022-08-11T13:17:25;99001.31;;;24.78;36.02
39491;BME280;25175;50.140;18.990;2022-08-11T13:20:29;98996.66;;;24.89;36.04
39491;BME280;25175;50.140;18.990;2022-08-11T13:23:32;98994.66;;;25.04;36.02
39491;BME280;25175;50.140;18.990;2022-08-11T13:26:36;98996.97;;;25.16;34.90
39491;BME280;25175;50.140;18.990;2022-08-11T13:29:40;98990.22;;;25.18;32.91
39491;BME280;25175;50.140;18.990;2022-08-11T13:32:48;98987.19;;;25.25;33.52
39491;BME280;25175;50.140;18.990;2022-08-11T13:35:52;98981.78;;;25.30;31.88
39491;BME280;25175;50.140;18.990;2022-08-11T13:38:56;98986.31;;;25.34;32.13
39491;BME280;25175;50.140;18.990;2022-08-11T13:42:01;98981.84;;;25.48;31.71
39491;BME280;25175;50.140;18.990;2022-08-11T13:45:05;98979.28;;;25.62;31.42
39491;BME280;25175;50.140;18.990;2022-08-11T13:48:11;98981.63;;;25.68;30.82
39491;BME280;25175;50.140;18.990;2022-08-11T13:51:13;98968.31;;;25.82;31.12
39491;BME280;25175;50.140;18.990;2022-08-11T13:54:35;98973.09;;;25.85;31.88
39491;BME280;25175;50.140;18.990;2022-08-11T13:58:08;98984.69;;;25.80;32.02
39491;BME280;25175;50.140;18.990;2022-08-11T14:01:10;99004.16;;;25.44;39.00
39491;BME280;25175;50.140;18.990;2022-08-11T14:04:19;99019.13;;;24.59;42.58
39491;BME280;25175;50.140;18.990;2022-08-11T14:07:31;99044.44;;;23.80;43.10
39491;BME280;25175;50.140;18.990;2022-08-11T14:10:36;99087.31;;;22.75;44.85
39491;BME280;25175;50.140;18.990;2022-08-11T14:13:40;99091.34;;;22.01;46.15
39491;BME280;25175;50.140;18.990;2022-08-11T14:16:43;99113.88;;;21.37;47.97
39491;BME280;25175;50.140;18.990;2022-08-11T14:19:50;99113.38;;;20.82;49.86
39491;BME280;25175;50.140;18.990;2022-08-11T14:22:53;99119.56;;;20.39;51.75
39491;BME280;25175;50.140;18.990;2022-08-11T14:25:56;99120.09;;;19.98;52.99
39491;BME280;25175;50.140;18.990;2022-08-11T14:29:20;99123.00;;;19.59;54.31
39491;BME280;25175;50.140;18.990;2022-08-11T14:32:23;99118.97;;;19.56;54.93
39491;BME280;25175;50.140;18.990;2022-08-11T14:35:28;99125.75;;;19.47;55.55
39491;BME280;25175;50.140;18.990;2022-08-11T14:38:31;99109.91;;;19.36;56.01
39491;BME280;25175;50.140;18.990;2022-08-11T14:41:34;99111.41;;;19.15;56.67
39491;BME280;25175;50.140;18.990;2022-08-11T14:44:56;99123.28;;;18.96;56.96
39491;BME280;25175;50.140;18.990;2022-08-11T14:48:17;99137.13;;;18.82;57.86
39491;BME280;25175;50.140;18.990;2022-08-11T14:51:21;99144.81;;;18.83;58.22
39491;BME280;25175;50.140;18.990;2022-08-11T14:54:25;99139.03;;;18.86;59.02
39491;BME280;25175;50.140;18.990;2022-08-11T14:57:47;99144.25;;;18.81;59.20
39491;BME280;25175;50.140;18.990;2022-08-11T15:00:53;99121.78;;;18.72;58.81
39491;BME280;25175;50.140;18.990;2022-08-11T15:03:56;99129.69;;;18.67;59.87
39491;BME280;25175;50.140;18.990;2022-08-11T15:07:01;99133.13;;;18.68;59.81
39491;BME280;25175;50.140;18.990;2022-08-11T15:10:07;99130.97;;;18.65;59.33
39491;BME280;25175;50.140;18.990;2022-08-11T15:13:10;99107.59;;;18.78;59.94
39491;BME280;25175;50.140;18.990;2022-08-11T15:16:13;99097.69;;;18.90;59.50
39491;BME280;25175;50.140;18.990;2022-08-11T15:19:33;99086.25;;;18.90;58.84
39491;BME280;25175;50.140;18.990;2022-08-11T15:22:37;99096.25;;;18.99;58.90
39491;BME280;25175;50.140;18.990;2022-08-11T15:25:59;99099.91;;;19.10;58.73
39491;BME280;25175;50.140;18.990;2022-08-11T15:29:02;99093.63;;;19.16;57.53
39491;BME280;25175;50.140;18.990;2022-08-11T15:32:22;99105.63;;;19.18;58.91
39491;BME280;25175;50.140;18.990;2022-08-11T15:35:43;99109.16;;;19.24;58.55
39491;BME280;25175;50.140;18.990;2022-08-11T15:39:07;99104.19;;;19.11;58.54
39491;BME280;25175;50.140;18.990;2022-08-11T15:42:12;99096.34;;;19.04;58.70
39491;BME280;25175;50.140;18.990;2022-08-11T15:45:36;99090.06;;;18.94;59.04
39491;BME280;25175;50.140;18.990;2022-08-11T15:48:55;99087.28;;;18.72;59.53
39491;BME280;25175;50.140;18.990;2022-08-11T15:52:01;99082.50;;;18.58;60.24
39491;BME280;25175;50.140;18.990;2022-08-11T15:55:07;99084.66;;;18.44;60.97
39491;BME280;25175;50.140;18.990;2022-08-11T15:58:11;99086.97;;;18.41;61.33
39491;BME280;25175;50.140;18.990;2022-08-11T16:01:32;99085.22;;;18.46;61.19
39491;BME280;25175;50.140;18.990;2022-08-11T16:04:54;99077.53;;;18.61;62.03
39491;BME280;25175;50.140;18.990;2022-08-11T16:07:57;99072.25;;;18.78;60.98
39491;BME280;25175;50.140;18.990;2022-08-11T16:11:02;99072.66;;;18.86;60.65
39491;BME280;25175;50.140;18.990;2022-08-11T16:14:07;99066.47;;;18.97;60.14
39491;BME280;25175;50.140;18.990;2022-08-11T16:17:31;99072.44;;;19.04;59.55
39491;BME280;25175;50.140;18.990;2022-08-11T16:20:34;99065.63;;;19.08;59.50
39491;BME280;25175;50.140;18.990;2022-08-11T16:23:39;99061.22;;;19.14;58.98
39491;BME280;25175;50.140;18.990;2022-08-11T16:26:43;99063.91;;;19.19;58.57
39491;BME280;25175;50.140;18.990;2022-08-11T16:29:46;99058.53;;;19.30;58.47
39491;BME280;25175;50.140;18.990;2022-08-11T16:32:52;99064.38;;;19.32;57.60
39491;BME280;25175;50.140;18.990;2022-08-11T16:35:55;99063.41;;;19.38;57.93
39491;BME280;25175;50.140;18.990;2022-08-11T16:39:16;99072.59;;;19.47;57.52
39491;BME280;25175;50.140;18.990;2022-08-11T16:42:20;99067.41;;;19.57;56.90
39491;BME280;25175;50.140;18.990;2022-08-11T16:45:41;99063.84;;;19.68;56.17
39491;BME280;25175;50.140;18.990;2022-08-11T16:49:03;99067.13;;;19.75;55.99
39491;BME280;25175;50.140;18.990;2022-08-11T16:52:06;99061.34;;;19.78;55.39
39491;BME280;25175;50.140;18.990;2022-08-11T16:55:11;99071.47;;;19.81;55.19
39491;BME280;25175;50.140;18.990;2022-08-11T16:58:15;99061.22;;;19.90;55.21
39491;BME280;25175;50.140;18.990;2022-08-11T17:01:35;99058.81;;;19.88;54.68
39491;BME280;25175;50.140;18.990;2022-08-11T17:04:43;99050.88;;;19.93;54.49
39491;BME280;25175;50.140;18.990;2022-08-11T17:08:06;99049.28;;;19.92;53.99
39491;BME280;25175;50.140;18.990;2022-08-11T17:11:31;99056.47;;;19.75;54.05
39491;BME280;25175;50.140;18.990;2022-08-11T17:14:55;99055.34;;;19.71;54.41
39491;BME280;25175;50.140;18.990;2022-08-11T17:18:00;99045.06;;;19.75;55.00
39491;BME280;25175;50.140;18.990;2022-08-11T17:21:03;99048.38;;;19.82;55.08
39491;BME280;25175;50.140;18.990;2022-08-11T17:24:09;99049.66;;;19.79;55.08
39491;BME280;25175;50.140;18.990;2022-08-11T17:27:15;99034.25;;;19.81;55.44
39491;BME280;25175;50.140;18.990;2022-08-11T17:30:20;99038.50;;;19.82;55.45
39491;BME280;25175;50.140;18.990;2022-08-11T17:33:44;99035.44;;;19.74;55.13
39491;BME280;25175;50.140;18.990;2022-08-11T17:37:05;99039.84;;;19.63;55.52